Terminal Aerodrome Forecast
Issued by NWS Sterling, VA

Current Version | Previous Version | Graphics & Text | Print | Product List | Glossary On
Versions: 1 2 3 4 5 6 7 8 9 10 11 12 13 14 15 16 17 18 19 20
066
FTUS41 KLWX 262341 AAB
TAFDCA
TAF AMD
KDCA 262341Z 2700/2724 17006KT P6SM VCTS SCT060CB
     FM270200 17005KT P6SM SCT070
     FM270400 18005KT P6SM BKN070
     FM271100 21008KT P6SM SCT080
     FM271900 19007KT P6SM BKN060=

USA.gov is the U.S. government's official web portal to all federal, state and local government web resources and services.